createdAt,value
2022-10-15T00:00:11.376Z,61.90
2022-10-15T00:03:00.310Z,59.20
2022-10-15T00:05:29.211Z,62.20
2022-10-15T00:08:00.146Z,65.20
2022-10-15T00:10:28.897Z,65.40
2022-10-15T00:12:57.741Z,64.00
2022-10-15T00:15:31.843Z,63.90
2022-10-15T00:18:00.657Z,61.80
2022-10-15T00:20:30.450Z,60.90
2022-10-15T00:22:59.241Z,59.30
2022-10-15T00:25:33.628Z,61.20
2022-10-15T00:28:02.535Z,62.60
2022-10-15T00:30:31.493Z,63.90
2022-10-15T00:33:02.936Z,61.70
2022-10-15T00:35:36.257Z,62.70
2022-10-15T00:38:05.160Z,60.70
2022-10-15T00:40:34.152Z,61.30
2022-10-15T00:43:03.301Z,60.40
2022-10-15T00:45:32.489Z,58.90
2022-10-15T00:48:07.693Z,63.40
2022-10-15T00:50:37.084Z,57.30
2022-10-15T00:53:09.968Z,60.30
2022-10-15T00:55:44.043Z,58.90
2022-10-15T00:58:22.585Z,60.50
2022-10-15T01:00:51.577Z,59.40
2022-10-15T01:03:23.206Z,57.90
2022-10-15T01:06:00.605Z,59.90
2022-10-15T01:08:31.470Z,60.30
2022-10-15T01:11:20.873Z,55.50
2022-10-15T01:14:47.453Z,65.70
2022-10-15T01:17:32.989Z,57.10
2022-10-15T01:20:25.513Z,59.20
2022-10-15T01:23:25.108Z,63.10
2022-10-15T01:26:28.605Z,66.60
2022-10-15T01:32:07.989Z,72.00
2022-10-15T01:34:49.441Z,64.80
2022-10-15T01:37:27.358Z,66.00
2022-10-15T01:40:14.828Z,67.80
2022-10-15T01:42:50.180Z,64.80
2022-10-15T01:45:28.533Z,67.10
2022-10-15T01:48:27.265Z,65.50
2022-10-15T01:51:04.163Z,64.30
2022-10-15T01:53:36.687Z,66.10
2022-10-15T01:56:15.771Z,72.90
2022-10-15T01:58:47.302Z,78.30
2022-10-15T02:01:16.775Z,76.80
2022-10-15T02:03:52.270Z,81.10
2022-10-15T02:06:35.034Z,74.50
2022-10-15T02:09:57.369Z,72.30
2022-10-15T02:12:56.811Z,70.80
2022-10-15T02:15:49.989Z,68.20
2022-10-15T02:18:37.588Z,67.80
2022-10-15T02:21:16.594Z,62.50
2022-10-15T02:24:09.351Z,60.90
2022-10-15T02:26:42.725Z,63.80
2022-10-15T02:29:18.239Z,62.10
2022-10-15T02:31:49.944Z,61.00
2022-10-15T02:34:22.767Z,63.60
2022-10-15T02:36:55.576Z,62.30
2022-10-15T02:39:25.769Z,61.40
2022-10-15T02:41:57.685Z,62.60
2022-10-15T02:44:28.731Z,66.70
2022-10-15T02:46:59.748Z,69.90
2022-10-15T02:49:28.799Z,73.50
2022-10-15T02:51:57.725Z,69.10
2022-10-15T02:54:26.572Z,73.10
2022-10-15T02:56:55.467Z,77.30
2022-10-15T02:59:26.565Z,75.10
2022-10-15T03:01:57.401Z,77.00
2022-10-15T03:04:29.217Z,74.00
2022-10-15T03:06:58.143Z,73.20
2022-10-15T03:09:31.249Z,68.30
2022-10-15T03:12:01.388Z,65.00
2022-10-15T03:14:38.822Z,68.70
2022-10-15T03:17:12.154Z,66.20
2022-10-15T03:19:43.467Z,61.80
2022-10-15T03:22:13.297Z,70.00
2022-10-15T03:24:50.873Z,71.60
2022-10-15T03:27:25.622Z,72.20
2022-10-15T03:29:55.247Z,70.20
2022-10-15T03:32:31.976Z,66.30
2022-10-15T03:35:05.281Z,58.90
2022-10-15T03:37:36.683Z,62.60
2022-10-15T03:40:13.638Z,55.80
2022-10-15T03:42:51.936Z,59.20
2022-10-15T03:45:29.157Z,59.50
2022-10-15T03:48:14.311Z,57.60
2022-10-15T03:53:12.123Z,55.20
2022-10-15T03:55:42.775Z,55.20
2022-10-15T03:58:23.379Z,58.50
2022-10-15T04:01:00.977Z,59.10
2022-10-15T04:03:30.122Z,57.10
2022-10-15T04:06:02.732Z,58.10
2022-10-15T04:08:33.272Z,55.10
2022-10-15T04:11:06.734Z,55.30
2022-10-15T04:13:36.091Z,53.70
2022-10-15T04:16:06.996Z,56.10
2022-10-15T04:18:36.002Z,53.10
2022-10-15T04:21:05.097Z,54.80
2022-10-15T04:23:35.422Z,56.00
2022-10-15T04:26:25.219Z,54.00
2022-10-15T04:28:54.134Z,52.50
2022-10-15T04:31:23.890Z,51.20
2022-10-15T04:33:52.938Z,49.80
2022-10-15T04:36:21.835Z,49.30
2022-10-15T04:39:02.055Z,48.50
2022-10-15T04:41:37.051Z,48.70
2022-10-15T04:44:11.623Z,49.80
2022-10-15T04:46:46.138Z,51.50
2022-10-15T04:49:35.089Z,53.90
2022-10-15T04:52:05.816Z,52.70
2022-10-15T04:54:51.541Z,54.50
2022-10-15T04:57:20.958Z,50.10
2022-10-15T04:59:57.671Z,53.70
2022-10-15T05:02:53.694Z,47.50
2022-10-15T05:05:26.943Z,47.20
2022-10-15T05:08:06.762Z,45.10
2022-10-15T05:10:45.971Z,48.80
2022-10-15T05:13:14.982Z,45.30
2022-10-15T05:15:44.524Z,47.10
2022-10-15T05:18:16.888Z,50.10
2022-10-15T05:20:52.507Z,49.60
2022-10-15T05:23:21.748Z,47.90
2022-10-15T05:26:03.878Z,52.70
2022-10-15T05:28:34.832Z,49.00
2022-10-15T05:31:14.733Z,44.40
2022-10-15T05:33:50.397Z,44.70
2022-10-15T05:36:29.381Z,42.20
2022-10-15T05:39:01.747Z,45.50
2022-10-15T05:41:32.435Z,42.60
2022-10-15T05:44:01.380Z,40.40
2022-10-15T05:49:07.099Z,39.40
2022-10-15T05:51:58.313Z,40.60
2022-10-15T05:55:01.060Z,38.10
2022-10-15T05:57:37.459Z,39.20
2022-10-15T06:00:11.419Z,40.30
2022-10-15T06:02:43.468Z,39.50
2022-10-15T06:05:13.340Z,37.60
2022-10-15T06:07:55.658Z,40.40
2022-10-15T06:10:25.888Z,37.80
2022-10-15T06:12:57.115Z,37.20
2022-10-15T06:15:35.872Z,38.70
2022-10-15T06:18:09.954Z,39.00
2022-10-15T06:20:44.479Z,38.80
2022-10-15T06:23:15.152Z,40.40
2022-10-15T06:25:47.495Z,38.30
2022-10-15T06:28:18.011Z,40.30
2022-10-15T06:31:36.146Z,41.10
2022-10-15T06:34:17.451Z,44.20
2022-10-15T06:36:46.792Z,46.70
2022-10-15T06:42:04.832Z,46.20
2022-10-15T06:44:50.124Z,43.70
2022-10-15T06:47:26.539Z,46.90
2022-10-15T06:50:09.535Z,46.70
2022-10-15T06:52:44.832Z,42.50
2022-10-15T07:00:02.053Z,44.00
2022-10-15T07:01:30.407Z,45.30
2022-10-15T07:04:22.245Z,46.90
2022-10-15T07:06:52.576Z,44.70
2022-10-15T07:09:42.587Z,45.90
2022-10-15T07:12:21.064Z,44.40
2022-10-15T07:14:54.457Z,43.00
2022-10-15T07:17:37.322Z,44.50
2022-10-15T07:20:35.535Z,42.80
2022-10-15T07:23:27.969Z,43.70
2022-10-15T07:26:29.860Z,44.90
2022-10-15T07:30:05.412Z,44.60
2022-10-15T07:33:06.900Z,44.30
2022-10-15T07:35:57.661Z,44.60
2022-10-15T07:39:16.470Z,43.00
2022-10-15T07:42:27.964Z,40.50
2022-10-15T07:45:25.658Z,45.00
2022-10-15T07:48:16.312Z,43.90
2022-10-15T07:51:28.413Z,44.30
2022-10-15T07:54:47.527Z,42.90
2022-10-15T07:59:59.012Z,41.10
2022-10-15T08:05:40.110Z,55.20
2022-10-15T08:09:05.293Z,45.80
2022-10-15T08:11:57.042Z,46.60
2022-10-15T08:15:33.057Z,46.10
2022-10-15T08:21:09.608Z,62.20
2022-10-15T08:23:59.525Z,57.70
2022-10-15T08:26:36.614Z,54.20
2022-10-15T08:29:10.533Z,62.70
2022-10-15T08:31:59.181Z,52.30
2022-10-15T08:34:49.100Z,51.90
2022-10-15T08:37:29.810Z,47.90
2022-10-15T08:40:16.064Z,50.40
2022-10-15T08:43:06.022Z,49.50
2022-10-15T08:45:57.946Z,51.50
2022-10-15T08:48:51.670Z,49.20
2022-10-15T08:51:53.209Z,55.80
2022-10-15T08:54:52.759Z,52.60
2022-10-15T09:01:04.125Z,57.00
2022-10-15T09:04:23.769Z,54.50
2022-10-15T09:07:37.790Z,52.40
2022-10-15T09:13:44.550Z,69.60
2022-10-15T09:16:31.766Z,58.00
2022-10-15T09:19:35.949Z,58.80
2022-10-15T09:22:21.046Z,57.70
2022-10-15T09:24:58.093Z,54.70
2022-10-15T09:27:39.887Z,55.30
2022-10-15T09:30:40.849Z,57.20
2022-10-15T09:33:32.367Z,53.20
2022-10-15T09:36:40.256Z,49.20
2022-10-15T09:39:35.741Z,52.80
2022-10-15T09:42:49.672Z,54.00
2022-10-15T09:45:26.333Z,56.00
2022-10-15T09:48:24.159Z,51.60
2022-10-15T09:51:47.291Z,49.50
2022-10-15T09:54:57.110Z,50.90
2022-10-15T10:09:32.010Z,43.90
2022-10-15T10:16:28.457Z,45.60
2022-10-15T10:19:23.941Z,42.60
2022-10-15T10:23:30.043Z,41.00
2022-10-15T10:26:56.034Z,36.60
2022-10-15T10:33:49.245Z,44.00
2022-10-15T10:36:45.182Z,35.30
2022-10-15T10:39:45.234Z,37.20
2022-10-15T10:42:41.669Z,42.20
2022-10-15T10:45:24.298Z,38.30
2022-10-15T10:47:57.592Z,38.40
2022-10-15T10:50:42.081Z,39.20
2022-10-15T10:53:37.912Z,40.30
2022-10-15T10:56:17.697Z,41.50
2022-10-15T10:59:07.413Z,37.80
2022-10-15T11:01:41.825Z,37.60
2022-10-15T11:04:36.770Z,37.90
2022-10-15T11:11:11.311Z,34.40
2022-10-15T11:14:23.061Z,40.20
2022-10-15T11:17:33.871Z,33.80
2022-10-15T11:20:50.907Z,33.90
2022-10-15T11:24:33.473Z,32.30
2022-10-15T11:28:04.865Z,36.00
2022-10-15T11:30:57.560Z,35.20
2022-10-15T11:34:59.393Z,32.30
2022-10-15T11:38:30.128Z,38.00
2022-10-15T11:45:22.523Z,86.20
2022-10-15T11:48:16.660Z,33.30
2022-10-15T11:51:01.067Z,33.10
2022-10-15T11:54:07.765Z,33.20
2022-10-15T11:56:55.465Z,33.70
2022-10-15T11:59:50.404Z,35.30
2022-10-15T12:02:27.053Z,33.50
2022-10-15T12:05:32.133Z,32.70
2022-10-15T12:08:02.555Z,29.30
2022-10-15T12:10:42.602Z,29.70
2022-10-15T12:13:42.256Z,27.90
2022-10-15T12:16:25.143Z,31.60
2022-10-15T12:19:14.511Z,29.00
2022-10-15T12:22:07.538Z,27.30
2022-10-15T12:24:45.364Z,23.90
2022-10-15T12:27:22.749Z,27.40
2022-10-15T12:30:18.079Z,29.90
2022-10-15T12:33:04.178Z,26.80
2022-10-15T12:35:41.090Z,26.80
2022-10-15T12:38:29.169Z,27.40
2022-10-15T12:41:13.306Z,30.30
2022-10-15T12:44:07.293Z,30.50
2022-10-15T12:46:42.687Z,32.80
2022-10-15T12:49:27.195Z,35.00
2022-10-15T12:52:01.403Z,31.70
2022-10-15T12:54:44.937Z,31.10
2022-10-15T12:57:41.480Z,31.30
2022-10-15T13:00:38.825Z,31.60
2022-10-15T13:03:28.017Z,32.10
2022-10-15T13:06:15.096Z,35.20
2022-10-15T13:09:12.800Z,38.00
2022-10-15T13:14:43.126Z,35.40
2022-10-15T13:17:23.184Z,36.30
2022-10-15T13:20:11.155Z,37.40
2022-10-15T13:22:40.410Z,32.10
2022-10-15T13:25:17.610Z,32.80
2022-10-15T13:27:46.917Z,36.10
2022-10-15T13:30:39.323Z,33.90
2022-10-15T13:33:18.217Z,47.00
2022-10-15T13:35:47.454Z,37.50
2022-10-15T13:38:25.465Z,37.60
2022-10-15T13:40:54.692Z,32.40
2022-10-15T13:43:26.188Z,31.10
2022-10-15T13:46:01.797Z,28.90
2022-10-15T13:48:41.268Z,30.00
2022-10-15T13:51:13.545Z,28.80
2022-10-15T13:53:42.701Z,30.50
2022-10-15T13:56:47.757Z,28.60
2022-10-15T13:59:22.563Z,27.90
2022-10-15T14:02:04.417Z,28.60
2022-10-15T14:04:34.018Z,25.80
2022-10-15T14:07:23.102Z,27.10
2022-10-15T14:09:53.010Z,28.40
2022-10-15T14:12:22.136Z,28.40
2022-10-15T14:14:51.239Z,27.40
2022-10-15T14:17:20.200Z,30.10
2022-10-15T14:20:25.346Z,31.10
2022-10-15T14:22:49.732Z,27.80
2022-10-15T14:25:25.175Z,29.10
2022-10-15T14:27:56.448Z,31.10
2022-10-15T14:30:35.641Z,31.20
2022-10-15T14:33:05.128Z,37.80
2022-10-15T14:35:37.811Z,30.70
2022-10-15T14:38:22.685Z,39.40
2022-10-15T14:41:19.052Z,29.60
2022-10-15T14:44:20.154Z,30.00
2022-10-15T14:46:59.185Z,31.10
2022-10-15T14:49:35.992Z,31.40
2022-10-15T14:52:19.048Z,32.70
2022-10-15T14:55:05.606Z,32.30
2022-10-15T14:57:40.932Z,29.50
2022-10-15T15:00:21.540Z,29.20
2022-10-15T15:02:51.008Z,29.90
2022-10-15T15:08:04.393Z,30.60
2022-10-15T15:10:37.964Z,33.20
2022-10-15T15:13:07.294Z,31.40
2022-10-15T15:15:36.693Z,31.20
2022-10-15T15:18:11.109Z,33.60
2022-10-15T15:20:44.794Z,34.10
2022-10-15T15:23:20.928Z,32.50
2022-10-15T15:25:55.191Z,32.50
2022-10-15T15:28:30.453Z,34.70
2022-10-15T15:31:20.984Z,35.00
2022-10-15T15:33:50.313Z,34.10
2022-10-15T15:36:23.606Z,34.60
2022-10-15T15:38:58.987Z,35.10
2022-10-15T15:41:28.438Z,36.70
2022-10-15T15:44:05.713Z,37.20
2022-10-15T15:46:36.082Z,36.90
2022-10-15T15:49:05.478Z,39.10
2022-10-15T15:51:37.437Z,38.70
2022-10-15T15:54:10.845Z,40.90
2022-10-15T16:01:43.235Z,41.50
2022-10-15T16:04:13.559Z,40.30
2022-10-15T16:06:49.073Z,42.80
2022-10-15T16:09:23.321Z,41.90
2022-10-15T16:11:57.083Z,43.10
2022-10-15T16:14:26.481Z,43.30
2022-10-15T16:17:01.785Z,42.10
2022-10-15T16:19:35.490Z,42.90
2022-10-15T16:22:07.073Z,42.30
2022-10-15T16:24:39.176Z,41.30
2022-10-15T16:27:09.675Z,41.50
2022-10-15T16:29:41.843Z,42.10
2022-10-15T16:32:10.969Z,42.40
2022-10-15T16:34:40.164Z,45.60
2022-10-15T16:37:09.352Z,48.90
2022-10-15T16:39:41.150Z,45.40
2022-10-15T16:42:10.155Z,43.60
2022-10-15T16:44:39.221Z,42.70
2022-10-15T16:47:08.171Z,62.80
2022-10-15T16:49:37.540Z,47.40
2022-10-15T16:52:11.535Z,42.20
2022-10-15T16:54:40.587Z,41.10
2022-10-15T16:57:09.606Z,40.00
2022-10-15T16:59:41.571Z,45.90
2022-10-15T17:02:12.713Z,45.50
2022-10-15T17:04:52.033Z,43.20
2022-10-15T17:07:25.647Z,47.70
2022-10-15T17:09:55.077Z,48.80
2022-10-15T17:12:24.512Z,53.70
2022-10-15T17:14:58.135Z,47.90
2022-10-15T17:17:33.953Z,48.20
2022-10-15T17:20:27.564Z,47.20
2022-10-15T17:23:14.122Z,52.30
2022-10-15T17:25:52.086Z,46.90
2022-10-15T17:28:23.701Z,47.00
2022-10-15T17:30:55.699Z,47.60
2022-10-15T17:33:27.226Z,44.80
2022-10-15T17:35:56.741Z,42.80
2022-10-15T17:38:32.181Z,45.00
2022-10-15T17:41:20.682Z,46.50
2022-10-15T17:43:50.827Z,46.80
2022-10-15T17:46:24.072Z,51.00
2022-10-15T17:48:54.685Z,49.50
2022-10-15T17:51:31.164Z,50.20
2022-10-15T17:54:01.653Z,49.70
2022-10-15T17:56:34.633Z,49.10
2022-10-15T17:59:07.119Z,45.10
2022-10-15T18:04:30.380Z,44.50
2022-10-15T18:06:59.432Z,43.00
2022-10-15T18:09:28.767Z,42.70
2022-10-15T18:12:03.900Z,43.80
2022-10-15T18:14:47.376Z,43.30
2022-10-15T18:17:24.668Z,42.50
2022-10-15T18:20:00.815Z,44.10
2022-10-15T18:22:46.817Z,42.40
2022-10-15T18:25:27.755Z,43.90
2022-10-15T18:28:02.395Z,45.90
2022-10-15T18:31:06.258Z,45.50
2022-10-15T18:33:45.245Z,46.50
2022-10-15T18:36:33.695Z,47.20
2022-10-15T18:39:20.809Z,43.40
2022-10-15T18:42:00.620Z,45.10
2022-10-15T18:45:04.703Z,42.00
2022-10-15T18:47:56.698Z,42.10
2022-10-15T18:50:35.151Z,42.00
2022-10-15T18:53:28.035Z,44.90
2022-10-15T18:56:04.820Z,45.70
2022-10-15T18:58:41.310Z,43.10
2022-10-15T19:01:31.596Z,52.30
2022-10-15T19:04:10.289Z,48.00
2022-10-15T19:06:53.778Z,45.50
2022-10-15T19:09:31.977Z,44.00
2022-10-15T19:12:28.671Z,43.60
2022-10-15T19:15:11.139Z,46.20
2022-10-15T19:17:50.032Z,46.70
2022-10-15T19:20:25.280Z,50.20
2022-10-15T19:23:04.441Z,55.60
2022-10-15T19:25:48.278Z,59.90
2022-10-15T19:28:41.664Z,64.00
2022-10-15T19:31:26.163Z,63.40
2022-10-15T19:34:16.016Z,65.00
2022-10-15T19:36:51.381Z,65.60
2022-10-15T19:39:35.926Z,60.60
2022-10-15T19:42:07.222Z,56.30
2022-10-15T19:44:52.054Z,53.00
2022-10-15T19:47:40.877Z,47.90
2022-10-15T19:50:18.593Z,44.90
2022-10-15T19:53:01.340Z,45.40
2022-10-15T19:56:08.479Z,48.70
2022-10-15T19:58:49.197Z,44.40
2022-10-15T20:05:10.505Z,44.80
2022-10-15T20:07:58.451Z,43.70
2022-10-15T20:10:29.870Z,45.00
2022-10-15T20:13:41.359Z,43.60
2022-10-15T20:16:23.360Z,44.90
2022-10-15T20:18:59.562Z,44.10
2022-10-15T20:21:32.515Z,45.00
2022-10-15T20:24:04.997Z,47.10
2022-10-15T20:26:40.963Z,45.10
2022-10-15T20:29:18.172Z,46.70
2022-10-15T20:32:05.667Z,46.40
2022-10-15T20:34:58.606Z,44.40
2022-10-15T20:37:41.840Z,45.60
2022-10-15T20:40:23.530Z,46.80
2022-10-15T20:43:15.161Z,46.20
2022-10-15T20:45:59.751Z,45.40
2022-10-15T20:48:40.675Z,46.00
2022-10-15T20:55:06.158Z,46.60
2022-10-15T21:01:14.964Z,51.00
2022-10-15T21:04:04.168Z,56.20
2022-10-15T21:07:04.778Z,57.10
2022-10-15T21:09:42.908Z,58.10
2022-10-15T21:12:31.261Z,60.70
2022-10-15T21:15:23.099Z,56.20
2022-10-15T21:32:35.745Z,45.20
2022-10-15T21:35:17.237Z,44.00
2022-10-15T21:41:45.301Z,41.20
2022-10-15T21:53:43.356Z,52.30
2022-10-15T21:56:25.682Z,53.70
2022-10-15T21:59:51.302Z,56.90
2022-10-15T22:02:33.507Z,61.10
2022-10-15T22:05:42.300Z,56.20
2022-10-15T22:09:09.421Z,53.80
2022-10-15T22:13:00.183Z,49.60
2022-10-15T22:20:06.397Z,45.40
2022-10-15T22:26:47.608Z,41.40
2022-10-15T22:33:15.973Z,34.60
2022-10-15T22:37:20.335Z,31.50
2022-10-15T22:41:02.238Z,27.80
2022-10-15T22:57:32.141Z,22.00
2022-10-15T23:08:40.981Z,21.70
2022-10-15T23:13:47.089Z,27.20
2022-10-15T23:15:36.500Z,37.00
2022-10-15T23:18:59.014Z,37.10
2022-10-15T23:22:15.049Z,33.70
2022-10-15T23:25:23.324Z,33.30
2022-10-15T23:28:20.484Z,30.50
2022-10-15T23:31:24.587Z,31.90
2022-10-15T23:34:57.841Z,29.40
2022-10-15T23:41:20.101Z,27.30
2022-10-15T23:47:36.524Z,24.60
2022-10-15T23:52:20.136Z,23.30
2022-10-15T23:54:53.277Z,23.40
